עמוד ראשי
METAR-TAF:

METAR-TAF

שדות תעופה :

פוג'יירה, איחוד האמירויות הערביות

קו רוחב: 25-06N, קו אורך: 056-20E, גובה: 28מטר

תצפית מזג אוויר נוכחית

הדו"ח נערך לפני 52דקות, בשעה 19:00 UTC
רוח 13קשר מכיוון מערב
טמפרטורת 39 צלסיוס
לחות 12%
לחץ 1000 hPa
ראות: 8000מטר

METAR: OMFJ 131900Z 28013KT 8000 NSC 39/05 Q0999 A2952

זמן: 23:52 (19:52 UTC)

תחזית

הדו"ח נערך לפני 2 שעות ו 52דקות, בשעה 17:00 UTC
תחזית בתוקף מ 13 ב 18 UTC עד 15 ב 00 UTC
רוח 12קשר מכיוון מערב/צפון-מערב
ראות: 7000מטר
יעשה מ
14 ב 08 UTC עד 14 ב 10 UTC
רוח 10קשר מכיוון מזרח/צפון-מזרח
יעשה מ
14 ב 12 UTC עד 14 ב 14 UTC
רוח 12קשר מכיוון מערב/צפון-מערב
הסתברות 30% :
זמנית מ -
13 ב 20 UTC עד 14 ב 15 UTC
רוח 16קשר מכיוון מערב/צפון-מערב עם משבים עד 26קשר
ראות: 5000מטר
אבק נושב,

TAF: OMFJ 131700Z 1318/1500 30012KT 7000 NSC BECMG 1408/1410 06010KT BECMG 1412/1414 29012KT PROB30 TEMPO 1320/1415 30016G26KT 5000 BLDU

תצפיות ותחזיות מזג אוויר לגבי יותר מ- 4,000 שדות תעופה ברחבי העולם. דוחות METAR ו- TAF.

התחנות הזמינות מסומנות בנקודות צהובות ואדומות על גבי המפה.

העבר את העכבר לנקודה הצבעונית על מנת לראות את שם התחנה.

לאחר מכן, לחץ כדי לראות את תוכן ואת תחזיות מזג האוויר.

כדי לשנות את המפה: לחץ על הכפתורים הירוקים עם הפלוס השחור כדי להתקרב; על הכפתור הירוק עם המקף כדי להתרחק; או בחיצים הירוקים למפות סמוכות.


METAR-TAF: